Terminal Aerodrome Forecast
Issued by NWS

Home | Current Version | Previous Version | Text Only | Print | Product List | Glossary On
Versions: 1 2 3 4 5 6 7 8 9 10 11 12 13
000
FTUS45 KVEF 231700
TAFHND
TAF
KHND 231720Z 2318/2418 02011KT P6SM FEW250
     FM240400 19007KT P6SM SCT250
     FM241500 VRB05KT P6SM SCT200=

USA.gov is the U.S. government's official web portal to all federal, state and local government web resources and services.